Time,TemperatureF,DewpointF,PressureIn,WindDirection,WindDirectionDegrees,WindSpeedMPH,WindSpeedGustMPH,Humidity,HourlyPrecipIn,Conditions,Clouds,dailyrainin,SoftwareType,DateUTC
2013-10-14 00:00:00,50.7,34.7,30.38,ESE,115,3.0,9.0,54,0.00,,---,0.00,VWS V14.01,2013-10-14 05:00:00,
2013-10-14 00:05:00,48.9,34.3,30.37,ESE,114,0.0,9.0,57,0.00,,---,0.00,VWS V14.01,2013-10-14 05:05:00,
2013-10-14 00:30:00,49.2,35.1,30.38,ESE,115,0.0,6.0,58,0.00,,---,0.00,VWS V14.01,2013-10-14 05:30:00,
2013-10-14 00:35:00,47.6,34.0,30.36,ESE,115,0.0,12.0,59,0.00,,---,0.00,VWS V14.01,2013-10-14 05:35:00,
2013-10-14 01:00:00,48.9,34.3,30.37,ESE,114,0.0,9.0,57,0.00,,---,0.00,VWS V14.01,2013-10-14 06:00:00,
2013-10-14 01:05:00,47.0,33.4,30.37,ESE,117,3.0,9.0,59,0.00,,---,0.00,VWS V14.01,2013-10-14 06:05:00,
2013-10-14 01:30:00,47.6,34.0,30.36,ESE,115,0.0,12.0,59,0.00,,---,0.00,VWS V14.01,2013-10-14 06:30:00,
2013-10-14 01:35:00,46.5,33.8,30.36,SE,127,3.0,12.0,61,0.00,,---,0.00,VWS V14.01,2013-10-14 06:35:00,
2013-10-14 02:00:00,47.0,33.4,30.37,ESE,117,3.0,9.0,59,0.00,,---,0.00,VWS V14.01,2013-10-14 07:00:00,
2013-10-14 02:05:00,46.1,33.8,30.35,ESE,123,3.0,9.0,62,0.00,,---,0.00,VWS V14.01,2013-10-14 07:05:00,
2013-10-14 02:30:00,46.5,33.8,30.36,SE,127,3.0,12.0,61,0.00,,---,0.00,VWS V14.01,2013-10-14 07:30:00,
2013-10-14 02:35:00,45.5,34.4,30.36,ESE,123,3.0,9.0,65,0.00,,---,0.00,VWS V14.01,2013-10-14 07:35:00,
2013-10-14 03:00:00,46.1,33.8,30.35,ESE,123,3.0,9.0,62,0.00,,---,0.00,VWS V14.01,2013-10-14 08:00:00,
2013-10-14 03:05:00,45.0,34.7,30.35,SE,132,3.0,9.0,67,0.00,,---,0.00,VWS V14.01,2013-10-14 08:05:00,
2013-10-14 03:30:00,45.5,34.4,30.36,ESE,123,3.0,9.0,65,0.00,,---,0.00,VWS V14.01,2013-10-14 08:30:00,
2013-10-14 03:35:00,44.8,33.8,30.34,SE,130,0.0,9.0,65,0.00,,---,0.00,VWS V14.01,2013-10-14 08:35:00,
2013-10-14 04:00:00,45.0,34.7,30.35,SE,132,3.0,9.0,67,0.00,,---,0.00,VWS V14.01,2013-10-14 09:00:00,
2013-10-14 04:05:00,44.7,33.3,30.34,SE,130,3.0,15.0,64,0.00,,---,0.00,VWS V14.01,2013-10-14 09:05:00,
2013-10-14 04:30:00,44.8,33.8,30.34,SE,130,0.0,9.0,65,0.00,,---,0.00,VWS V14.01,2013-10-14 09:30:00,
2013-10-14 04:35:00,43.8,33.6,30.34,SE,129,0.0,12.0,67,0.00,,---,0.00,VWS V14.01,2013-10-14 09:35:00,
2013-10-14 05:00:00,44.7,33.3,30.34,SE,130,3.0,15.0,64,0.00,,---,0.00,VWS V14.01,2013-10-14 10:00:00,
2013-10-14 05:05:00,43.0,33.9,30.33,ESE,123,0.0,15.0,70,0.00,,---,0.00,VWS V14.01,2013-10-14 10:05:00,
2013-10-14 05:30:00,43.8,33.6,30.34,SE,129,0.0,12.0,67,0.00,,---,0.00,VWS V14.01,2013-10-14 10:30:00,
2013-10-14 05:35:00,42.5,34.1,30.32,SE,140,3.0,12.0,72,0.00,,---,0.00,VWS V14.01,2013-10-14 10:35:00,
2013-10-14 06:00:00,43.0,33.9,30.33,ESE,123,0.0,15.0,70,0.00,,---,0.00,VWS V14.01,2013-10-14 11:00:00,
2013-10-14 06:05:00,42.4,34.0,30.31,SE,124,6.0,15.0,72,0.00,,---,0.00,VWS V14.01,2013-10-14 11:05:00,
2013-10-14 06:30:00,42.5,34.1,30.32,SE,140,3.0,12.0,72,0.00,,---,0.00,VWS V14.01,2013-10-14 11:30:00,
2013-10-14 06:35:00,42.7,34.3,30.31,SE,126,0.0,15.0,72,0.00,,---,0.00,VWS V14.01,2013-10-14 11:35:00,
2013-10-14 07:00:00,42.4,34.0,30.31,SE,124,6.0,15.0,72,0.00,,---,0.00,VWS V14.01,2013-10-14 12:00:00,
2013-10-14 07:05:00,42.7,34.3,30.31,SE,125,3.0,24.0,72,0.00,,---,0.00,VWS V14.01,2013-10-14 12:05:00,
2013-10-14 07:30:00,42.7,34.3,30.31,SE,126,0.0,15.0,72,0.00,,---,0.00,VWS V14.01,2013-10-14 12:30:00,
2013-10-14 07:35:00,42.9,34.5,30.30,ESE,105,12.0,24.0,72,0.00,,---,0.00,VWS V14.01,2013-10-14 12:35:00,
2013-10-14 08:00:00,42.7,34.3,30.31,SE,125,3.0,24.0,72,0.00,,---,0.00,VWS V14.01,2013-10-14 13:00:00,
2013-10-14 08:05:00,43.1,35.0,30.30,ESE,117,12.0,27.0,73,0.00,,---,0.00,VWS V14.01,2013-10-14 13:05:00,
2013-10-14 08:30:00,42.9,34.5,30.30,ESE,105,12.0,24.0,72,0.00,,---,0.00,VWS V14.01,2013-10-14 13:30:00,
2013-10-14 08:35:00,45.3,36.5,30.30,SE,132,3.0,27.0,71,0.00,,---,0.00,VWS V14.01,2013-10-14 13:35:00,
2013-10-14 09:00:00,43.1,35.0,30.30,ESE,117,12.0,27.0,73,0.00,,---,0.00,VWS V14.01,2013-10-14 14:00:00,
2013-10-14 09:05:00,48.2,37.8,30.29,South,175,15.0,33.0,67,0.00,,---,0.00,VWS V14.01,2013-10-14 14:05:00,
2013-10-14 09:30:00,45.3,36.5,30.30,SE,132,3.0,27.0,71,0.00,,---,0.00,VWS V14.01,2013-10-14 14:30:00,
2013-10-14 09:35:00,50.5,38.8,30.27,ESE,115,12.0,39.0,64,0.00,,---,0.00,VWS V14.01,2013-10-14 14:35:00,
2013-10-14 10:00:00,48.2,37.8,30.29,South,175,15.0,33.0,67,0.00,,---,0.00,VWS V14.01,2013-10-14 15:00:00,
2013-10-14 10:05:00,53.7,39.3,30.25,SE,125,6.0,33.0,58,0.00,,---,0.00,VWS V14.01,2013-10-14 15:05:00,
2013-10-14 10:30:00,50.5,38.8,30.27,ESE,115,12.0,39.0,64,0.00,,---,0.00,VWS V14.01,2013-10-14 15:30:00,
2013-10-14 10:35:00,55.6,39.2,30.25,SE,129,6.0,48.0,54,0.00,,---,0.00,VWS V14.01,2013-10-14 15:35:00,
2013-10-14 11:00:00,53.7,39.3,30.25,SE,125,6.0,33.0,58,0.00,,---,0.00,VWS V14.01,2013-10-14 16:00:00,
2013-10-14 11:05:00,56.6,39.7,30.25,SE,134,12.0,36.0,53,0.00,,---,0.00,VWS V14.01,2013-10-14 16:05:00,
2013-10-14 11:30:00,55.6,39.2,30.25,SE,129,6.0,48.0,54,0.00,,---,0.00,VWS V14.01,2013-10-14 16:30:00,
2013-10-14 11:35:00,57.1,40.2,30.22,ESE,113,12.0,45.0,53,0.00,,---,0.00,VWS V14.01,2013-10-14 16:35:00,
2013-10-14 12:00:00,56.6,39.7,30.25,SE,134,12.0,36.0,53,0.00,,---,0.00,VWS V14.01,2013-10-14 17:00:00,
2013-10-14 12:05:00,60.1,39.3,30.20,SSE,152,18.0,42.0,46,0.00,,---,0.00,VWS V14.01,2013-10-14 17:05:00,
2013-10-14 12:30:00,57.1,40.2,30.22,ESE,113,12.0,45.0,53,0.00,,---,0.00,VWS V14.01,2013-10-14 17:30:00,
2013-10-14 12:35:00,60.2,38.8,30.17,ESE,109,36.0,48.0,45,0.00,,---,0.00,VWS V14.01,2013-10-14 17:35:00,
2013-10-14 13:00:00,60.1,39.3,30.20,SSE,152,18.0,42.0,46,0.00,,---,0.00,VWS V14.01,2013-10-14 18:00:00,
2013-10-14 13:05:00,62.3,39.5,30.15,SE,133,18.0,45.0,43,0.00,,---,0.00,VWS V14.01,2013-10-14 18:05:00,
2013-10-14 13:30:00,60.2,38.8,30.17,ESE,109,36.0,48.0,45,0.00,,---,0.00,VWS V14.01,2013-10-14 18:30:00,
2013-10-14 13:35:00,62.4,39.6,30.13,SSE,148,12.0,45.0,43,0.00,,---,0.00,VWS V14.01,2013-10-14 18:35:00,
2013-10-14 14:00:00,62.3,39.5,30.15,SE,133,18.0,45.0,43,0.00,,---,0.00,VWS V14.01,2013-10-14 19:00:00,
2013-10-14 14:05:00,62.7,42.2,30.10,SE,125,12.0,51.0,47,0.00,,---,0.00,VWS V14.01,2013-10-14 19:05:00,
2013-10-14 14:30:00,62.4,39.6,30.13,SSE,148,12.0,45.0,43,0.00,,---,0.00,VWS V14.01,2013-10-14 19:30:00,
2013-10-14 14:35:00,62.3,38.9,30.08,SSE,153,12.0,45.0,42,0.00,,---,0.00,VWS V14.01,2013-10-14 19:35:00,
2013-10-14 15:00:00,62.7,42.2,30.10,SE,125,12.0,51.0,47,0.00,,---,0.00,VWS V14.01,2013-10-14 20:00:00,
2013-10-14 15:05:00,62.9,41.3,30.06,SE,126,9.0,48.0,45,0.00,,---,0.00,VWS V14.01,2013-10-14 20:05:00,
2013-10-14 15:30:00,62.3,38.9,30.08,SSE,153,12.0,45.0,42,0.00,,---,0.00,VWS V14.01,2013-10-14 20:30:00,
2013-10-14 15:35:00,63.7,39.6,30.05,SE,140,18.0,48.0,41,0.00,,---,0.00,VWS V14.01,2013-10-14 20:35:00,
2013-10-14 16:00:00,62.9,41.3,30.06,SE,126,9.0,48.0,45,0.00,,---,0.00,VWS V14.01,2013-10-14 21:00:00,
2013-10-14 16:05:00,63.4,41.1,30.04,SE,129,12.0,39.0,44,0.00,,---,0.00,VWS V14.01,2013-10-14 21:05:00,
2013-10-14 16:30:00,63.7,39.6,30.05,SE,140,18.0,48.0,41,0.00,,---,0.00,VWS V14.01,2013-10-14 21:30:00,
2013-10-14 16:35:00,63.2,41.5,30.02,SE,132,18.0,36.0,45,0.00,,---,0.00,VWS V14.01,2013-10-14 21:35:00,
2013-10-14 17:00:00,63.4,41.1,30.04,SE,129,12.0,39.0,44,0.00,,---,0.00,VWS V14.01,2013-10-14 22:00:00,
2013-10-14 17:05:00,63.0,41.3,30.01,ESE,120,15.0,33.0,45,0.00,,---,0.00,VWS V14.01,2013-10-14 22:05:00,
2013-10-14 17:30:00,63.2,41.5,30.02,SE,132,18.0,36.0,45,0.00,,---,0.00,VWS V14.01,2013-10-14 22:30:00,
2013-10-14 17:35:00,62.9,42.4,29.99,SE,125,6.0,30.0,47,0.00,,---,0.00,VWS V14.01,2013-10-14 22:35:00,
2013-10-14 18:00:00,63.0,41.3,30.01,ESE,120,15.0,33.0,45,0.00,,---,0.00,VWS V14.01,2013-10-14 23:00:00,
2013-10-14 18:05:00,62.2,42.3,29.98,SSE,147,12.0,30.0,48,0.00,,---,0.00,VWS V14.01,2013-10-14 23:05:00,
2013-10-14 18:30:00,62.9,42.4,29.99,SE,125,6.0,30.0,47,0.00,,---,0.00,VWS V14.01,2013-10-14 23:30:00,
2013-10-14 18:35:00,61.7,42.4,29.98,ENE,75,12.0,36.0,49,0.00,,---,0.00,VWS V14.01,2013-10-14 23:35:00,
2013-10-14 19:00:00,62.2,42.3,29.98,SSE,147,12.0,30.0,48,0.00,,---,0.00,VWS V14.01,2013-10-15 00:00:00,
2013-10-14 19:05:00,61.4,43.1,29.98,ESE,111,12.0,30.0,51,0.00,,---,0.00,VWS V14.01,2013-10-15 00:05:00,
2013-10-14 19:30:00,61.7,42.4,29.98,ENE,75,12.0,36.0,49,0.00,,---,0.00,VWS V14.01,2013-10-15 00:30:00,
2013-10-14 19:35:00,59.9,44.2,29.97,SE,124,3.0,30.0,56,0.00,,---,0.00,VWS V14.01,2013-10-15 00:35:00,
2013-10-14 20:00:00,61.4,43.1,29.98,ESE,111,12.0,30.0,51,0.00,,---,0.00,VWS V14.01,2013-10-15 01:00:00,
2013-10-14 20:05:00,59.4,45.1,29.94,SE,141,21.0,39.0,59,0.00,,---,0.00,VWS V14.01,2013-10-15 01:05:00,
2013-10-14 20:30:00,59.9,44.2,29.97,SE,124,3.0,30.0,56,0.00,,---,0.00,VWS V14.01,2013-10-15 01:30:00,
2013-10-14 20:35:00,56.2,46.6,29.92,ESE,123,36.0,36.0,70,0.02,,---,0.02,VWS V14.01,2013-10-15 01:35:00,
2013-10-14 21:00:00,59.4,45.1,29.94,SE,141,21.0,39.0,59,0.00,,---,0.00,VWS V14.01,2013-10-15 02:00:00,
2013-10-14 21:05:00,57.3,45.7,29.91,SE,144,6.0,42.0,65,0.02,,---,0.02,VWS V14.01,2013-10-15 02:05:00,
2013-10-14 21:30:00,56.2,46.6,29.92,ESE,123,36.0,36.0,70,0.02,,---,0.02,VWS V14.01,2013-10-15 02:30:00,
2013-10-14 21:35:00,57.3,46.0,29.91,SE,127,6.0,45.0,66,0.02,,---,0.02,VWS V14.01,2013-10-15 02:35:00,
2013-10-14 22:00:00,57.3,45.7,29.91,SE,144,6.0,42.0,65,0.02,,---,0.02,VWS V14.01,2013-10-15 03:00:00,
2013-10-14 22:05:00,57.4,46.2,29.90,SE,134,6.0,51.0,66,0.00,,---,0.02,VWS V14.01,2013-10-15 03:05:00,
2013-10-14 22:30:00,57.3,46.0,29.91,SE,127,6.0,45.0,66,0.02,,---,0.02,VWS V14.01,2013-10-15 03:30:00,
2013-10-14 22:35:00,57.7,46.0,29.88,SSE,148,18.0,36.0,65,0.00,,---,0.02,VWS V14.01,2013-10-15 03:35:00,
2013-10-14 23:00:00,57.4,46.2,29.90,SE,134,6.0,51.0,66,0.00,,---,0.02,VWS V14.01,2013-10-15 04:00:00,
2013-10-14 23:05:00,59.4,46.4,29.87,ESE,106,24.0,42.0,62,0.00,,---,0.02,VWS V14.01,2013-10-15 04:05:00,
2013-10-14 23:30:00,57.7,46.0,29.88,SSE,148,18.0,36.0,65,0.00,,---,0.02,VWS V14.01,2013-10-15 04:30:00,
2013-10-14 23:35:00,60.2,47.6,29.83,SW,214,9.0,42.0,63,0.00,,---,0.02,VWS V14.01,2013-10-15 04:35:00,